sensor_id;sensor_type;location;lat;lon;timestamp;P1;durP1;ratioP1;P2;durP2;ratioP2
3700;SDS011;1866;48.374;10.766;2023-02-21T00:00:42;102.60;;;7.70;;
3700;SDS011;1866;48.374;10.766;2023-02-21T00:03:27;99.37;;;6.70;;
3700;SDS011;1866;48.374;10.766;2023-02-21T00:06:11;105.70;;;7.00;;
3700;SDS011;1866;48.374;10.766;2023-02-21T00:08:56;101.77;;;7.07;;
3700;SDS011;1866;48.374;10.766;2023-02-21T00:11:40;99.97;;;6.93;;
3700;SDS011;1866;48.374;10.766;2023-02-21T00:14:27;99.57;;;7.40;;
3700;SDS011;1866;48.374;10.766;2023-02-21T00:17:11;99.20;;;7.30;;
3700;SDS011;1866;48.374;10.766;2023-02-21T00:19:56;98.40;;;7.30;;
3700;SDS011;1866;48.374;10.766;2023-02-21T00:22:40;98.33;;;7.20;;
3700;SDS011;1866;48.374;10.766;2023-02-21T00:25:24;98.80;;;8.20;;
3700;SDS011;1866;48.374;10.766;2023-02-21T00:28:09;101.53;;;7.87;;
3700;SDS011;1866;48.374;10.766;2023-02-21T00:30:54;99.67;;;7.50;;
3700;SDS011;1866;48.374;10.766;2023-02-21T00:33:39;117.40;;;7.70;;
3700;SDS011;1866;48.374;10.766;2023-02-21T00:36:23;99.57;;;8.03;;
3700;SDS011;1866;48.374;10.766;2023-02-21T00:39:07;100.78;;;7.38;;
3700;SDS011;1866;48.374;10.766;2023-02-21T00:41:52;98.17;;;7.43;;
3700;SDS011;1866;48.374;10.766;2023-02-21T00:44:36;97.30;;;7.10;;
3700;SDS011;1866;48.374;10.766;2023-02-21T00:47:22;96.97;;;7.10;;
3700;SDS011;1866;48.374;10.766;2023-02-21T00:50:06;97.57;;;7.22;;
3700;SDS011;1866;48.374;10.766;2023-02-21T00:52:50;97.60;;;7.22;;
3700;SDS011;1866;48.374;10.766;2023-02-21T00:55:34;97.72;;;7.13;;
3700;SDS011;1866;48.374;10.766;2023-02-21T00:58:20;98.38;;;7.13;;
3700;SDS011;1866;48.374;10.766;2023-02-21T01:01:05;96.80;;;7.40;;
3700;SDS011;1866;48.374;10.766;2023-02-21T01:03:50;98.07;;;7.60;;
3700;SDS011;1866;48.374;10.766;2023-02-21T01:06:35;99.18;;;7.50;;
3700;SDS011;1866;48.374;10.766;2023-02-21T01:09:19;97.47;;;6.90;;
3700;SDS011;1866;48.374;10.766;2023-02-21T01:12:04;101.22;;;8.00;;
3700;SDS011;1866;48.374;10.766;2023-02-21T01:14:48;98.85;;;7.05;;
3700;SDS011;1866;48.374;10.766;2023-02-21T01:17:33;100.15;;;7.25;;
3700;SDS011;1866;48.374;10.766;2023-02-21T01:20:19;97.68;;;7.32;;
3700;SDS011;1866;48.374;10.766;2023-02-21T01:23:03;99.22;;;8.05;;
3700;SDS011;1866;48.374;10.766;2023-02-21T01:25:47;98.63;;;7.55;;
3700;SDS011;1866;48.374;10.766;2023-02-21T01:28:32;103.57;;;8.33;;
3700;SDS011;1866;48.374;10.766;2023-02-21T01:31:16;98.82;;;7.88;;
3700;SDS011;1866;48.374;10.766;2023-02-21T01:34:02;99.53;;;7.53;;
3700;SDS011;1866;48.374;10.766;2023-02-21T01:36:48;100.50;;;7.80;;
3700;SDS011;1866;48.374;10.766;2023-02-21T01:39:32;105.95;;;7.85;;
3700;SDS011;1866;48.374;10.766;2023-02-21T01:42:17;103.05;;;8.13;;
3700;SDS011;1866;48.374;10.766;2023-02-21T01:48:25;100.07;;;7.95;;
3700;SDS011;1866;48.374;10.766;2023-02-21T01:51:11;98.80;;;7.47;;
3700;SDS011;1866;48.374;10.766;2023-02-21T01:53:58;100.15;;;8.43;;
3700;SDS011;1866;48.374;10.766;2023-02-21T01:56:43;101.30;;;8.57;;
3700;SDS011;1866;48.374;10.766;2023-02-21T01:59:28;97.70;;;7.75;;
3700;SDS011;1866;48.374;10.766;2023-02-21T02:02:14;98.63;;;8.02;;
3700;SDS011;1866;48.374;10.766;2023-02-21T02:05:01;101.05;;;8.40;;
3700;SDS011;1866;48.374;10.766;2023-02-21T02:07:47;98.88;;;7.60;;
3700;SDS011;1866;48.374;10.766;2023-02-21T02:10:33;98.10;;;7.38;;
3700;SDS011;1866;48.374;10.766;2023-02-21T02:13:22;98.53;;;7.55;;
3700;SDS011;1866;48.374;10.766;2023-02-21T02:16:05;100.00;;;8.20;;
3700;SDS011;1866;48.374;10.766;2023-02-21T02:18:40;99.07;;;8.50;;
3700;SDS011;1866;48.374;10.766;2023-02-21T02:24:22;97.05;;;7.68;;
3700;SDS011;1866;48.374;10.766;2023-02-21T02:33:27;98.75;;;7.50;;
3700;SDS011;1866;48.374;10.766;2023-02-21T02:36:15;95.72;;;7.10;;
3700;SDS011;1866;48.374;10.766;2023-02-21T02:38:49;96.30;;;7.07;;
3700;SDS011;1866;48.374;10.766;2023-02-21T02:41:23;101.40;;;7.68;;
3700;SDS011;1866;48.374;10.766;2023-02-21T02:43:59;97.47;;;7.53;;
3700;SDS011;1866;48.374;10.766;2023-02-21T02:46:30;99.10;;;7.85;;
3700;SDS011;1866;48.374;10.766;2023-02-21T02:49:01;98.55;;;7.63;;
3700;SDS011;1866;48.374;10.766;2023-02-21T02:51:33;97.20;;;7.28;;
3700;SDS011;1866;48.374;10.766;2023-02-21T02:54:01;97.28;;;7.60;;
3700;SDS011;1866;48.374;10.766;2023-02-21T02:56:28;97.68;;;7.20;;
3700;SDS011;1866;48.374;10.766;2023-02-21T02:58:55;97.90;;;7.78;;
3700;SDS011;1866;48.374;10.766;2023-02-21T03:01:34;97.53;;;7.72;;
3700;SDS011;1866;48.374;10.766;2023-02-21T03:04:30;96.20;;;7.57;;
3700;SDS011;1866;48.374;10.766;2023-02-21T03:07:19;100.53;;;7.80;;
3700;SDS011;1866;48.374;10.766;2023-02-21T03:09:51;97.53;;;7.65;;
3700;SDS011;1866;48.374;10.766;2023-02-21T03:12:26;98.03;;;7.63;;
3700;SDS011;1866;48.374;10.766;2023-02-21T03:15:02;96.78;;;7.53;;
3700;SDS011;1866;48.374;10.766;2023-02-21T03:17:35;97.60;;;7.75;;
3700;SDS011;1866;48.374;10.766;2023-02-21T03:20:06;96.75;;;7.70;;
3700;SDS011;1866;48.374;10.766;2023-02-21T03:22:36;100.45;;;8.50;;
3700;SDS011;1866;48.374;10.766;2023-02-21T03:25:05;101.38;;;8.20;;
3700;SDS011;1866;48.374;10.766;2023-02-21T03:27:33;98.13;;;7.90;;
3700;SDS011;1866;48.374;10.766;2023-02-21T03:30:02;98.53;;;8.45;;
3700;SDS011;1866;48.374;10.766;2023-02-21T03:32:32;98.60;;;8.48;;
3700;SDS011;1866;48.374;10.766;2023-02-21T03:35:00;101.68;;;8.93;;
3700;SDS011;1866;48.374;10.766;2023-02-21T03:37:29;100.75;;;7.95;;
3700;SDS011;1866;48.374;10.766;2023-02-21T03:39:58;98.72;;;8.82;;
3700;SDS011;1866;48.374;10.766;2023-02-21T03:42:26;97.68;;;7.97;;
3700;SDS011;1866;48.374;10.766;2023-02-21T03:44:52;102.20;;;8.00;;
3700;SDS011;1866;48.374;10.766;2023-02-21T03:47:20;96.57;;;8.07;;
3700;SDS011;1866;48.374;10.766;2023-02-21T03:49:47;98.55;;;7.93;;
3700;SDS011;1866;48.374;10.766;2023-02-21T03:52:14;98.03;;;8.40;;
3700;SDS011;1866;48.374;10.766;2023-02-21T03:54:41;99.05;;;7.95;;
3700;SDS011;1866;48.374;10.766;2023-02-21T03:57:09;102.03;;;8.85;;
3700;SDS011;1866;48.374;10.766;2023-02-21T03:59:36;97.32;;;8.15;;
3700;SDS011;1866;48.374;10.766;2023-02-21T04:02:03;100.03;;;8.75;;
3700;SDS011;1866;48.374;10.766;2023-02-21T04:04:30;99.68;;;8.50;;
3700;SDS011;1866;48.374;10.766;2023-02-21T04:06:56;97.45;;;8.07;;
3700;SDS011;1866;48.374;10.766;2023-02-21T04:09:23;99.97;;;8.70;;
3700;SDS011;1866;48.374;10.766;2023-02-21T04:11:51;97.97;;;7.85;;
3700;SDS011;1866;48.374;10.766;2023-02-21T04:14:20;102.45;;;8.73;;
3700;SDS011;1866;48.374;10.766;2023-02-21T04:16:47;99.68;;;8.50;;
3700;SDS011;1866;48.374;10.766;2023-02-21T04:19:14;97.85;;;7.43;;
3700;SDS011;1866;48.374;10.766;2023-02-21T04:21:40;100.53;;;8.20;;
3700;SDS011;1866;48.374;10.766;2023-02-21T04:24:07;99.95;;;7.75;;
3700;SDS011;1866;48.374;10.766;2023-02-21T04:26:34;97.43;;;8.20;;
3700;SDS011;1866;48.374;10.766;2023-02-21T04:29:01;97.57;;;8.77;;
3700;SDS011;1866;48.374;10.766;2023-02-21T04:31:29;98.63;;;8.50;;
3700;SDS011;1866;48.374;10.766;2023-02-21T04:33:56;98.32;;;8.32;;
3700;SDS011;1866;48.374;10.766;2023-02-21T04:36:23;97.45;;;7.68;;
3700;SDS011;1866;48.374;10.766;2023-02-21T04:38:50;96.88;;;7.72;;
3700;SDS011;1866;48.374;10.766;2023-02-21T04:41:17;97.53;;;8.02;;
3700;SDS011;1866;48.374;10.766;2023-02-21T04:43:44;99.03;;;8.30;;
3700;SDS011;1866;48.374;10.766;2023-02-21T04:46:12;97.78;;;8.57;;
3700;SDS011;1866;48.374;10.766;2023-02-21T04:48:41;99.55;;;8.95;;
3700;SDS011;1866;48.374;10.766;2023-02-21T04:51:08;95.57;;;7.78;;
3700;SDS011;1866;48.374;10.766;2023-02-21T04:53:35;98.18;;;8.48;;
3700;SDS011;1866;48.374;10.766;2023-02-21T04:56:02;97.43;;;8.70;;
3700;SDS011;1866;48.374;10.766;2023-02-21T04:58:29;103.50;;;9.10;;
3700;SDS011;1866;48.374;10.766;2023-02-21T05:00:56;99.85;;;9.00;;
3700;SDS011;1866;48.374;10.766;2023-02-21T05:03:23;96.82;;;8.50;;
3700;SDS011;1866;48.374;10.766;2023-02-21T05:05:51;97.38;;;8.48;;
3700;SDS011;1866;48.374;10.766;2023-02-21T05:08:18;96.57;;;8.55;;
3700;SDS011;1866;48.374;10.766;2023-02-21T05:10:45;97.90;;;9.02;;
3700;SDS011;1866;48.374;10.766;2023-02-21T05:13:12;96.28;;;8.82;;
3700;SDS011;1866;48.374;10.766;2023-02-21T05:15:39;97.57;;;8.52;;
3700;SDS011;1866;48.374;10.766;2023-02-21T05:18:06;97.18;;;8.57;;
3700;SDS011;1866;48.374;10.766;2023-02-21T05:20:33;96.85;;;8.48;;
3700;SDS011;1866;48.374;10.766;2023-02-21T05:23:01;98.80;;;9.15;;
3700;SDS011;1866;48.374;10.766;2023-02-21T05:25:28;100.53;;;9.02;;
3700;SDS011;1866;48.374;10.766;2023-02-21T05:27:55;97.20;;;8.85;;
3700;SDS011;1866;48.374;10.766;2023-02-21T05:30:22;97.03;;;8.45;;
3700;SDS011;1866;48.374;10.766;2023-02-21T05:32:49;96.38;;;8.75;;
3700;SDS011;1866;48.374;10.766;2023-02-21T05:35:16;99.90;;;8.60;;
3700;SDS011;1866;48.374;10.766;2023-02-21T05:37:43;97.20;;;9.48;;
3700;SDS011;1866;48.374;10.766;2023-02-21T05:40:11;96.85;;;8.52;;
3700;SDS011;1866;48.374;10.766;2023-02-21T05:42:39;97.78;;;8.77;;
3700;SDS011;1866;48.374;10.766;2023-02-21T05:45:07;97.78;;;9.18;;
3700;SDS011;1866;48.374;10.766;2023-02-21T05:47:35;96.93;;;8.25;;
3700;SDS011;1866;48.374;10.766;2023-02-21T05:50:02;97.85;;;8.73;;
3700;SDS011;1866;48.374;10.766;2023-02-21T05:52:30;99.50;;;9.55;;
3700;SDS011;1866;48.374;10.766;2023-02-21T05:54:57;97.30;;;9.05;;
3700;SDS011;1866;48.374;10.766;2023-02-21T05:57:25;96.97;;;8.85;;
3700;SDS011;1866;48.374;10.766;2023-02-21T05:59:52;96.35;;;9.07;;
3700;SDS011;1866;48.374;10.766;2023-02-21T06:02:18;95.30;;;8.00;;
3700;SDS011;1866;48.374;10.766;2023-02-21T06:04:45;96.18;;;8.50;;
3700;SDS011;1866;48.374;10.766;2023-02-21T06:07:13;97.38;;;8.68;;
3700;SDS011;1866;48.374;10.766;2023-02-21T06:09:39;97.45;;;9.15;;
3700;SDS011;1866;48.374;10.766;2023-02-21T06:12:06;99.55;;;8.80;;
3700;SDS011;1866;48.374;10.766;2023-02-21T06:14:34;97.00;;;8.80;;
3700;SDS011;1866;48.374;10.766;2023-02-21T06:17:01;99.55;;;8.85;;
3700;SDS011;1866;48.374;10.766;2023-02-21T06:19:28;97.18;;;9.07;;
3700;SDS011;1866;48.374;10.766;2023-02-21T06:21:55;100.45;;;8.73;;
3700;SDS011;1866;48.374;10.766;2023-02-21T06:24:22;97.13;;;9.05;;
3700;SDS011;1866;48.374;10.766;2023-02-21T06:26:49;100.00;;;9.25;;
3700;SDS011;1866;48.374;10.766;2023-02-21T06:29:16;99.03;;;9.15;;
3700;SDS011;1866;48.374;10.766;2023-02-21T06:31:44;103.80;;;9.45;;
3700;SDS011;1866;48.374;10.766;2023-02-21T06:34:10;99.68;;;8.85;;
3700;SDS011;1866;48.374;10.766;2023-02-21T06:36:37;102.18;;;8.88;;
3700;SDS011;1866;48.374;10.766;2023-02-21T06:39:04;96.15;;;8.38;;
3700;SDS011;1866;48.374;10.766;2023-02-21T06:41:32;96.63;;;8.90;;
3700;SDS011;1866;48.374;10.766;2023-02-21T06:43:59;96.97;;;8.90;;
3700;SDS011;1866;48.374;10.766;2023-02-21T06:46:26;97.63;;;8.40;;
3700;SDS011;1866;48.374;10.766;2023-02-21T06:48:56;94.93;;;8.50;;
3700;SDS011;1866;48.374;10.766;2023-02-21T06:51:23;105.13;;;9.80;;
3700;SDS011;1866;48.374;10.766;2023-02-21T06:53:53;98.38;;;9.50;;
3700;SDS011;1866;48.374;10.766;2023-02-21T06:56:21;99.38;;;9.07;;
3700;SDS011;1866;48.374;10.766;2023-02-21T06:58:48;103.22;;;9.93;;
3700;SDS011;1866;48.374;10.766;2023-02-21T07:01:15;98.95;;;8.90;;
3700;SDS011;1866;48.374;10.766;2023-02-21T07:03:42;99.18;;;9.63;;
3700;SDS011;1866;48.374;10.766;2023-02-21T07:06:10;99.70;;;9.38;;
3700;SDS011;1866;48.374;10.766;2023-02-21T07:08:37;99.05;;;9.98;;
3700;SDS011;1866;48.374;10.766;2023-02-21T07:11:04;98.03;;;9.70;;
3700;SDS011;1866;48.374;10.766;2023-02-21T07:13:31;100.47;;;10.80;;
3700;SDS011;1866;48.374;10.766;2023-02-21T07:15:59;100.55;;;10.52;;
3700;SDS011;1866;48.374;10.766;2023-02-21T07:18:26;100.97;;;9.80;;
3700;SDS011;1866;48.374;10.766;2023-02-21T07:20:53;105.32;;;10.88;;
3700;SDS011;1866;48.374;10.766;2023-02-21T07:23:21;103.95;;;10.82;;
3700;SDS011;1866;48.374;10.766;2023-02-21T07:25:48;104.65;;;11.73;;
3700;SDS011;1866;48.374;10.766;2023-02-21T07:28:15;104.80;;;10.48;;
3700;SDS011;1866;48.374;10.766;2023-02-21T07:30:42;102.50;;;11.15;;
3700;SDS011;1866;48.374;10.766;2023-02-21T07:33:10;102.85;;;10.15;;
3700;SDS011;1866;48.374;10.766;2023-02-21T07:35:37;103.25;;;11.02;;
3700;SDS011;1866;48.374;10.766;2023-02-21T07:38:04;102.15;;;11.30;;
3700;SDS011;1866;48.374;10.766;2023-02-21T07:40:32;101.68;;;11.25;;
3700;SDS011;1866;48.374;10.766;2023-02-21T07:42:59;103.05;;;11.02;;
3700;SDS011;1866;48.374;10.766;2023-02-21T07:45:26;102.25;;;10.77;;
3700;SDS011;1866;48.374;10.766;2023-02-21T07:47:54;103.22;;;11.18;;
3700;SDS011;1866;48.374;10.766;2023-02-21T07:50:21;100.07;;;9.35;;
3700;SDS011;1866;48.374;10.766;2023-02-21T07:52:48;103.22;;;9.98;;
3700;SDS011;1866;48.374;10.766;2023-02-21T07:55:15;100.82;;;9.52;;
3700;SDS011;1866;48.374;10.766;2023-02-21T07:57:43;99.63;;;9.57;;
3700;SDS011;1866;48.374;10.766;2023-02-21T08:00:10;100.30;;;9.93;;
3700;SDS011;1866;48.374;10.766;2023-02-21T08:02:38;101.85;;;10.23;;
3700;SDS011;1866;48.374;10.766;2023-02-21T08:05:05;99.80;;;9.27;;
3700;SDS011;1866;48.374;10.766;2023-02-21T08:07:33;100.68;;;9.60;;
3700;SDS011;1866;48.374;10.766;2023-02-21T08:10:00;99.33;;;8.83;;
3700;SDS011;1866;48.374;10.766;2023-02-21T08:12:29;99.60;;;8.80;;
3700;SDS011;1866;48.374;10.766;2023-02-21T08:14:57;99.77;;;9.10;;
3700;SDS011;1866;48.374;10.766;2023-02-21T08:17:24;99.67;;;9.13;;
3700;SDS011;1866;48.374;10.766;2023-02-21T08:19:51;99.27;;;8.67;;
3700;SDS011;1866;48.374;10.766;2023-02-21T08:22:18;101.20;;;8.63;;
3700;SDS011;1866;48.374;10.766;2023-02-21T08:24:47;101.50;;;8.87;;
3700;SDS011;1866;48.374;10.766;2023-02-21T08:27:14;99.90;;;8.60;;
3700;SDS011;1866;48.374;10.766;2023-02-21T08:29:41;101.17;;;9.30;;
3700;SDS011;1866;48.374;10.766;2023-02-21T08:32:09;102.87;;;9.00;;
3700;SDS011;1866;48.374;10.766;2023-02-21T08:34:36;100.00;;;7.83;;
3700;SDS011;1866;48.374;10.766;2023-02-21T08:37:03;106.40;;;8.80;;
3700;SDS011;1866;48.374;10.766;2023-02-21T08:39:30;107.50;;;8.97;;
3700;SDS011;1866;48.374;10.766;2023-02-21T08:41:57;107.13;;;8.67;;
3700;SDS011;1866;48.374;10.766;2023-02-21T08:44:24;106.70;;;9.00;;
3700;SDS011;1866;48.374;10.766;2023-02-21T08:46:51;103.10;;;8.67;;
3700;SDS011;1866;48.374;10.766;2023-02-21T08:49:19;102.50;;;8.00;;
3700;SDS011;1866;48.374;10.766;2023-02-21T08:51:46;103.17;;;8.37;;
3700;SDS011;1866;48.374;10.766;2023-02-21T08:54:13;103.13;;;8.57;;
3700;SDS011;1866;48.374;10.766;2023-02-21T08:56:39;104.00;;;8.23;;
3700;SDS011;1866;48.374;10.766;2023-02-21T08:59:06;102.80;;;8.10;;
3700;SDS011;1866;48.374;10.766;2023-02-21T09:01:34;101.20;;;7.20;;
3700;SDS011;1866;48.374;10.766;2023-02-21T09:04:01;105.50;;;7.50;;
3700;SDS011;1866;48.374;10.766;2023-02-21T09:06:30;105.47;;;7.73;;
3700;SDS011;1866;48.374;10.766;2023-02-21T09:08:57;103.17;;;7.53;;
3700;SDS011;1866;48.374;10.766;2023-02-21T09:11:24;99.67;;;7.20;;
3700;SDS011;1866;48.374;10.766;2023-02-21T09:13:50;102.37;;;7.73;;
3700;SDS011;1866;48.374;10.766;2023-02-21T09:16:19;101.73;;;7.00;;
3700;SDS011;1866;48.374;10.766;2023-02-21T09:18:51;102.20;;;6.83;;
3700;SDS011;1866;48.374;10.766;2023-02-21T09:21:20;102.77;;;7.20;;
3700;SDS011;1866;48.374;10.766;2023-02-21T09:23:48;101.47;;;6.90;;
3700;SDS011;1866;48.374;10.766;2023-02-21T09:26:18;105.40;;;7.10;;
3700;SDS011;1866;48.374;10.766;2023-02-21T09:28:46;102.03;;;7.10;;
3700;SDS011;1866;48.374;10.766;2023-02-21T09:31:12;103.80;;;6.80;;
3700;SDS011;1866;48.374;10.766;2023-02-21T09:33:39;104.83;;;7.33;;
3700;SDS011;1866;48.374;10.766;2023-02-21T09:36:06;108.00;;;7.17;;
3700;SDS011;1866;48.374;10.766;2023-02-21T09:38:33;104.70;;;8.40;;
3700;SDS011;1866;48.374;10.766;2023-02-21T09:41:02;103.83;;;7.37;;
3700;SDS011;1866;48.374;10.766;2023-02-21T09:43:32;105.67;;;6.80;;
3700;SDS011;1866;48.374;10.766;2023-02-21T09:46:02;101.17;;;6.50;;
3700;SDS011;1866;48.374;10.766;2023-02-21T09:48:32;104.03;;;6.20;;
3700;SDS011;1866;48.374;10.766;2023-02-21T09:51:00;103.00;;;7.27;;
3700;SDS011;1866;48.374;10.766;2023-02-21T09:53:31;103.50;;;7.33;;
3700;SDS011;1866;48.374;10.766;2023-02-21T09:56:03;101.37;;;6.60;;
3700;SDS011;1866;48.374;10.766;2023-02-21T09:58:32;105.00;;;6.83;;
3700;SDS011;1866;48.374;10.766;2023-02-21T10:01:02;101.93;;;6.30;;
3700;SDS011;1866;48.374;10.766;2023-02-21T10:03:41;106.90;;;6.17;;
3700;SDS011;1866;48.374;10.766;2023-02-21T10:06:17;103.73;;;6.80;;
3700;SDS011;1866;48.374;10.766;2023-02-21T10:08:51;105.87;;;7.07;;
3700;SDS011;1866;48.374;10.766;2023-02-21T10:11:29;101.87;;;6.60;;
3700;SDS011;1866;48.374;10.766;2023-02-21T10:14:11;101.70;;;6.07;;
3700;SDS011;1866;48.374;10.766;2023-02-21T10:16:45;100.70;;;5.97;;
3700;SDS011;1866;48.374;10.766;2023-02-21T10:19:17;102.43;;;6.47;;
3700;SDS011;1866;48.374;10.766;2023-02-21T10:21:50;102.20;;;6.17;;
3700;SDS011;1866;48.374;10.766;2023-02-21T10:24:23;101.90;;;6.20;;
3700;SDS011;1866;48.374;10.766;2023-02-21T10:26:56;105.27;;;6.90;;
3700;SDS011;1866;48.374;10.766;2023-02-21T10:29:26;101.23;;;6.20;;
3700;SDS011;1866;48.374;10.766;2023-02-21T10:32:01;102.17;;;5.97;;
3700;SDS011;1866;48.374;10.766;2023-02-21T10:34:29;100.77;;;5.80;;
3700;SDS011;1866;48.374;10.766;2023-02-21T10:37:01;101.47;;;6.20;;
3700;SDS011;1866;48.374;10.766;2023-02-21T10:39:35;112.47;;;8.37;;
3700;SDS011;1866;48.374;10.766;2023-02-21T10:42:10;101.90;;;6.30;;
3700;SDS011;1866;48.374;10.766;2023-02-21T10:44:43;101.10;;;5.73;;
3700;SDS011;1866;48.374;10.766;2023-02-21T10:47:13;103.47;;;5.90;;
3700;SDS011;1866;48.374;10.766;2023-02-21T10:49:45;100.97;;;5.70;;
3700;SDS011;1866;48.374;10.766;2023-02-21T10:52:17;100.27;;;5.57;;
3700;SDS011;1866;48.374;10.766;2023-02-21T10:54:58;100.17;;;5.57;;
3700;SDS011;1866;48.374;10.766;2023-02-21T10:57:27;100.33;;;5.77;;
3700;SDS011;1866;48.374;10.766;2023-02-21T10:59:56;101.20;;;5.50;;
3700;SDS011;1866;48.374;10.766;2023-02-21T11:02:27;103.90;;;6.10;;
3700;SDS011;1866;48.374;10.766;2023-02-21T11:05:06;102.90;;;6.10;;
3700;SDS011;1866;48.374;10.766;2023-02-21T11:07:35;100.60;;;5.50;;
3700;SDS011;1866;48.374;10.766;2023-02-21T11:10:02;101.10;;;5.70;;
3700;SDS011;1866;48.374;10.766;2023-02-21T11:13:05;101.27;;;5.57;;
3700;SDS011;1866;48.374;10.766;2023-02-21T11:15:38;102.63;;;5.97;;
3700;SDS011;1866;48.374;10.766;2023-02-21T11:18:05;101.07;;;5.83;;
3700;SDS011;1866;48.374;10.766;2023-02-21T11:20:39;101.80;;;5.80;;
3700;SDS011;1866;48.374;10.766;2023-02-21T11:23:16;101.57;;;5.90;;
3700;SDS011;1866;48.374;10.766;2023-02-21T11:25:51;101.10;;;5.73;;
3700;SDS011;1866;48.374;10.766;2023-02-21T11:28:23;101.07;;;5.93;;
3700;SDS011;1866;48.374;10.766;2023-02-21T11:31:02;102.07;;;6.20;;
3700;SDS011;1866;48.374;10.766;2023-02-21T11:33:35;108.40;;;5.80;;
3700;SDS011;1866;48.374;10.766;2023-02-21T11:36:08;104.93;;;6.17;;
3700;SDS011;1866;48.374;10.766;2023-02-21T11:38:38;101.50;;;5.90;;
3700;SDS011;1866;48.374;10.766;2023-02-21T11:41:16;102.03;;;6.00;;
3700;SDS011;1866;48.374;10.766;2023-02-21T11:43:47;101.30;;;5.63;;
3700;SDS011;1866;48.374;10.766;2023-02-21T11:46:20;103.37;;;6.40;;
3700;SDS011;1866;48.374;10.766;2023-02-21T11:48:58;102.37;;;6.10;;
3700;SDS011;1866;48.374;10.766;2023-02-21T11:51:31;101.67;;;5.57;;
3700;SDS011;1866;48.374;10.766;2023-02-21T11:54:02;108.30;;;5.47;;
3700;SDS011;1866;48.374;10.766;2023-02-21T11:56:33;101.47;;;5.40;;
3700;SDS011;1866;48.374;10.766;2023-02-21T11:59:13;105.27;;;6.53;;
3700;SDS011;1866;48.374;10.766;2023-02-21T12:01:50;100.87;;;5.03;;
3700;SDS011;1866;48.374;10.766;2023-02-21T12:04:35;100.90;;;5.10;;
3700;SDS011;1866;48.374;10.766;2023-02-21T12:07:16;101.50;;;5.43;;
3700;SDS011;1866;48.374;10.766;2023-02-21T12:09:48;101.67;;;5.30;;
3700;SDS011;1866;48.374;10.766;2023-02-21T12:12:28;101.83;;;5.70;;
3700;SDS011;1866;48.374;10.766;2023-02-21T12:15:04;99.70;;;5.50;;
3700;SDS011;1866;48.374;10.766;2023-02-21T12:17:44;101.07;;;5.27;;
3700;SDS011;1866;48.374;10.766;2023-02-21T12:20:25;101.37;;;5.23;;
3700;SDS011;1866;48.374;10.766;2023-02-21T12:23:10;102.10;;;5.50;;
3700;SDS011;1866;48.374;10.766;2023-02-21T12:25:46;102.20;;;5.30;;
3700;SDS011;1866;48.374;10.766;2023-02-21T12:28:30;99.20;;;4.90;;
3700;SDS011;1866;48.374;10.766;2023-02-21T12:31:10;101.67;;;5.60;;
3700;SDS011;1866;48.374;10.766;2023-02-21T12:33:47;102.57;;;5.00;;
3700;SDS011;1866;48.374;10.766;2023-02-21T12:36:29;99.80;;;5.20;;
3700;SDS011;1866;48.374;10.766;2023-02-21T12:39:13;101.30;;;5.20;;
3700;SDS011;1866;48.374;10.766;2023-02-21T12:41:57;101.20;;;5.20;;
3700;SDS011;1866;48.374;10.766;2023-02-21T12:44:32;100.07;;;4.80;;
3700;SDS011;1866;48.374;10.766;2023-02-21T12:47:11;100.00;;;4.90;;
3700;SDS011;1866;48.374;10.766;2023-02-21T12:49:45;100.87;;;5.20;;
3700;SDS011;1866;48.374;10.766;2023-02-21T12:52:18;99.77;;;5.20;;
3700;SDS011;1866;48.374;10.766;2023-02-21T12:54:53;100.50;;;5.47;;
3700;SDS011;1866;48.374;10.766;2023-02-21T12:57:25;106.20;;;6.10;;
3700;SDS011;1866;48.374;10.766;2023-02-21T13:00:01;107.50;;;5.10;;
3700;SDS011;1866;48.374;10.766;2023-02-21T13:02:42;101.23;;;5.00;;
3700;SDS011;1866;48.374;10.766;2023-02-21T13:05:15;102.77;;;5.33;;
3700;SDS011;1866;48.374;10.766;2023-02-21T13:07:47;99.73;;;4.87;;
3700;SDS011;1866;48.374;10.766;2023-02-21T13:10:21;99.83;;;4.90;;
3700;SDS011;1866;48.374;10.766;2023-02-21T13:12:50;100.37;;;5.13;;
3700;SDS011;1866;48.374;10.766;2023-02-21T13:15:25;102.20;;;5.13;;
3700;SDS011;1866;48.374;10.766;2023-02-21T13:17:55;99.37;;;4.93;;
3700;SDS011;1866;48.374;10.766;2023-02-21T13:20:26;100.07;;;5.47;;
3700;SDS011;1866;48.374;10.766;2023-02-21T13:26:16;100.40;;;5.00;;
3700;SDS011;1866;48.374;10.766;2023-02-21T13:29:01;100.30;;;5.10;;
3700;SDS011;1866;48.374;10.766;2023-02-21T13:31:33;99.90;;;5.00;;
3700;SDS011;1866;48.374;10.766;2023-02-21T13:34:02;102.57;;;5.47;;
3700;SDS011;1866;48.374;10.766;2023-02-21T13:36:39;99.87;;;5.00;;
3700;SDS011;1866;48.374;10.766;2023-02-21T13:39:10;100.27;;;5.00;;
3700;SDS011;1866;48.374;10.766;2023-02-21T13:41:40;100.20;;;4.83;;
3700;SDS011;1866;48.374;10.766;2023-02-21T13:44:11;100.87;;;5.07;;
3700;SDS011;1866;48.374;10.766;2023-02-21T13:46:59;99.07;;;4.70;;
3700;SDS011;1866;48.374;10.766;2023-02-21T13:49:35;99.77;;;4.70;;
3700;SDS011;1866;48.374;10.766;2023-02-21T14:00:54;98.10;;;4.47;;
3700;SDS011;1866;48.374;10.766;2023-02-21T14:03:30;100.20;;;4.90;;
3700;SDS011;1866;48.374;10.766;2023-02-21T14:09:06;100.00;;;4.77;;
3700;SDS011;1866;48.374;10.766;2023-02-21T14:11:37;99.50;;;4.90;;
3700;SDS011;1866;48.374;10.766;2023-02-21T14:14:20;100.63;;;4.70;;
3700;SDS011;1866;48.374;10.766;2023-02-21T14:16:51;100.47;;;4.70;;
3700;SDS011;1866;48.374;10.766;2023-02-21T14:19:26;99.90;;;4.80;;
3700;SDS011;1866;48.374;10.766;2023-02-21T14:22:01;100.17;;;4.80;;
3700;SDS011;1866;48.374;10.766;2023-02-21T14:24:35;99.27;;;5.00;;
3700;SDS011;1866;48.374;10.766;2023-02-21T14:27:04;98.80;;;4.73;;
3700;SDS011;1866;48.374;10.766;2023-02-21T14:32:53;100.20;;;4.80;;
3700;SDS011;1866;48.374;10.766;2023-02-21T14:35:26;99.40;;;4.70;;
3700;SDS011;1866;48.374;10.766;2023-02-21T14:37:59;99.30;;;4.73;;
3700;SDS011;1866;48.374;10.766;2023-02-21T14:40:29;100.00;;;4.80;;
3700;SDS011;1866;48.374;10.766;2023-02-21T14:43:08;100.47;;;4.90;;
3700;SDS011;1866;48.374;10.766;2023-02-21T14:45:52;98.60;;;4.67;;
3700;SDS011;1866;48.374;10.766;2023-02-21T14:48:34;99.47;;;5.00;;
3700;SDS011;1866;48.374;10.766;2023-02-21T14:51:48;99.27;;;4.70;;
3700;SDS011;1866;48.374;10.766;2023-02-21T14:54:31;99.63;;;4.47;;
3700;SDS011;1866;48.374;10.766;2023-02-21T14:57:33;101.10;;;4.47;;
3700;SDS011;1866;48.374;10.766;2023-02-21T15:00:19;99.67;;;4.37;;
3700;SDS011;1866;48.374;10.766;2023-02-21T15:02:52;99.60;;;4.50;;
3700;SDS011;1866;48.374;10.766;2023-02-21T15:05:24;99.60;;;4.60;;
3700;SDS011;1866;48.374;10.766;2023-02-21T15:07:57;102.60;;;4.50;;
3700;SDS011;1866;48.374;10.766;2023-02-21T15:10:27;98.83;;;4.50;;
3700;SDS011;1866;48.374;10.766;2023-02-21T15:12:56;99.40;;;4.47;;
3700;SDS011;1866;48.374;10.766;2023-02-21T15:15:26;99.50;;;4.97;;
3700;SDS011;1866;48.374;10.766;2023-02-21T15:17:55;99.77;;;4.50;;
3700;SDS011;1866;48.374;10.766;2023-02-21T15:20:26;100.80;;;4.60;;
3700;SDS011;1866;48.374;10.766;2023-02-21T15:22:56;100.30;;;4.53;;
3700;SDS011;1866;48.374;10.766;2023-02-21T15:25:25;100.37;;;4.70;;
3700;SDS011;1866;48.374;10.766;2023-02-21T15:27:53;99.30;;;4.40;;
3700;SDS011;1866;48.374;10.766;2023-02-21T15:30:26;99.37;;;4.63;;
3700;SDS011;1866;48.374;10.766;2023-02-21T15:32:57;99.20;;;4.90;;
3700;SDS011;1866;48.374;10.766;2023-02-21T15:35:28;101.07;;;5.00;;
3700;SDS011;1866;48.374;10.766;2023-02-21T15:38:00;98.47;;;4.67;;
3700;SDS011;1866;48.374;10.766;2023-02-21T15:40:30;99.03;;;4.57;;
3700;SDS011;1866;48.374;10.766;2023-02-21T15:42:57;98.53;;;4.50;;
3700;SDS011;1866;48.374;10.766;2023-02-21T15:45:25;99.00;;;4.50;;